createdAt,value
2023-03-29T00:00:10.956Z,8.88
2023-03-29T00:02:37.375Z,8.80
2023-03-29T00:05:03.823Z,8.91
2023-03-29T00:07:30.318Z,9.08
2023-03-29T00:09:56.689Z,8.83
2023-03-29T00:12:22.999Z,9.06
2023-03-29T00:14:49.440Z,8.92
2023-03-29T00:17:15.740Z,9.07
2023-03-29T00:19:42.038Z,9.11
2023-03-29T00:22:08.368Z,9.10
2023-03-29T00:24:34.683Z,9.00
2023-03-29T00:27:00.984Z,9.08
2023-03-29T00:29:27.289Z,8.90
2023-03-29T00:31:53.648Z,9.03
2023-03-29T00:34:19.988Z,9.09
2023-03-29T00:36:46.308Z,8.83
2023-03-29T00:39:12.608Z,8.64
2023-03-29T00:41:38.901Z,8.47
2023-03-29T00:44:05.223Z,8.56
2023-03-29T00:46:31.597Z,8.66
2023-03-29T00:48:57.941Z,8.75
2023-03-29T00:51:24.262Z,8.77
2023-03-29T00:53:50.561Z,8.68
2023-03-29T00:56:16.864Z,8.64
2023-03-29T00:58:43.273Z,8.80
2023-03-29T01:01:09.577Z,8.71
2023-03-29T01:03:35.978Z,8.93
2023-03-29T01:06:02.388Z,8.68
2023-03-29T01:08:28.715Z,8.86
2023-03-29T01:10:55.022Z,9.08
2023-03-29T01:13:21.406Z,9.08
2023-03-29T01:15:47.715Z,8.67
2023-03-29T01:18:14.032Z,8.51
2023-03-29T01:20:40.339Z,8.66
2023-03-29T01:23:06.639Z,8.77
2023-03-29T01:25:32.956Z,8.96
2023-03-29T01:27:59.299Z,8.95
2023-03-29T01:30:25.587Z,8.99
2023-03-29T01:32:51.934Z,8.68
2023-03-29T01:35:18.307Z,8.76
2023-03-29T01:37:44.606Z,8.60
2023-03-29T01:40:10.909Z,8.63
2023-03-29T01:42:37.235Z,8.98
2023-03-29T01:45:03.541Z,8.82
2023-03-29T01:47:29.866Z,8.97
2023-03-29T01:49:56.203Z,8.78
2023-03-29T01:52:22.512Z,8.67
2023-03-29T01:54:48.820Z,8.74
2023-03-29T01:57:15.165Z,8.65
2023-03-29T01:59:41.460Z,8.37
2023-03-29T02:02:07.809Z,8.72
2023-03-29T02:04:34.152Z,8.77
2023-03-29T02:07:00.460Z,8.32
2023-03-29T02:09:26.754Z,8.56
2023-03-29T02:11:53.070Z,8.69
2023-03-29T02:14:19.441Z,8.48
2023-03-29T02:16:45.764Z,8.88
2023-03-29T02:19:12.114Z,8.83
2023-03-29T02:21:38.520Z,8.92
2023-03-29T02:24:04.844Z,8.80
2023-03-29T02:26:31.162Z,8.71
2023-03-29T02:28:57.451Z,8.89
2023-03-29T02:31:23.779Z,9.02
2023-03-29T02:33:50.112Z,8.93
2023-03-29T02:36:16.450Z,8.76
2023-03-29T02:38:42.766Z,8.95
2023-03-29T02:41:09.095Z,8.91
2023-03-29T02:43:35.398Z,8.97
2023-03-29T02:46:01.694Z,8.97
2023-03-29T02:48:28.013Z,9.06
2023-03-29T02:50:54.323Z,9.25
2023-03-29T02:53:20.634Z,9.23
2023-03-29T02:55:46.991Z,8.65
2023-03-29T02:58:13.319Z,8.69
2023-03-29T03:00:39.620Z,8.78
2023-03-29T03:03:06.116Z,8.90
2023-03-29T03:05:32.525Z,8.92
2023-03-29T03:07:58.822Z,9.08
2023-03-29T03:10:25.135Z,9.20
2023-03-29T03:12:51.438Z,9.24
2023-03-29T03:15:17.749Z,9.10
2023-03-29T03:17:44.174Z,8.75
2023-03-29T03:20:10.487Z,8.66
2023-03-29T03:22:37.899Z,8.89
2023-03-29T03:25:04.270Z,9.07
2023-03-29T03:27:30.569Z,9.05
2023-03-29T03:29:56.866Z,8.88
2023-03-29T03:32:23.238Z,8.98
2023-03-29T03:34:49.578Z,8.80
2023-03-29T03:37:15.885Z,9.09
2023-03-29T03:39:42.206Z,8.87
2023-03-29T03:42:08.629Z,8.79
2023-03-29T03:44:34.956Z,8.89
2023-03-29T03:47:02.818Z,8.91
2023-03-29T03:49:29.114Z,8.97
2023-03-29T03:51:55.407Z,9.05
2023-03-29T03:54:21.722Z,8.97
2023-03-29T03:56:48.041Z,9.03
2023-03-29T03:59:14.390Z,9.07
2023-03-29T04:01:40.720Z,9.06
2023-03-29T04:04:07.077Z,9.10
2023-03-29T04:06:33.457Z,9.09
2023-03-29T04:08:59.772Z,9.14
2023-03-29T04:11:26.062Z,9.21
2023-03-29T04:13:52.373Z,9.20
2023-03-29T04:16:18.738Z,9.23
2023-03-29T04:18:47.986Z,9.23
2023-03-29T04:21:14.314Z,9.22
2023-03-29T04:23:40.644Z,9.26
2023-03-29T04:26:06.942Z,9.26
2023-03-29T04:28:33.336Z,9.17
2023-03-29T04:30:59.780Z,9.30
2023-03-29T04:33:26.140Z,9.38
2023-03-29T04:35:52.468Z,9.49
2023-03-29T04:38:18.887Z,9.53
2023-03-29T04:40:45.203Z,9.54
2023-03-29T04:43:11.492Z,9.33
2023-03-29T04:45:37.805Z,9.34
2023-03-29T04:48:04.133Z,9.50
2023-03-29T04:50:30.457Z,9.42
2023-03-29T04:52:56.771Z,9.49
2023-03-29T04:55:23.096Z,9.36
2023-03-29T04:57:49.393Z,9.42
2023-03-29T05:00:15.740Z,9.33
2023-03-29T05:02:42.057Z,9.32
2023-03-29T05:05:08.381Z,9.43
2023-03-29T05:07:34.703Z,9.51
2023-03-29T05:10:01.004Z,9.42
2023-03-29T05:12:27.297Z,9.37
2023-03-29T05:14:53.625Z,9.42
2023-03-29T05:17:19.922Z,9.59
2023-03-29T05:19:46.222Z,9.55
2023-03-29T05:22:12.564Z,9.40
2023-03-29T05:24:38.862Z,9.51
2023-03-29T05:27:05.148Z,9.39
2023-03-29T05:29:31.462Z,9.47
2023-03-29T05:31:57.770Z,9.51
2023-03-29T05:34:24.075Z,9.66
2023-03-29T05:36:50.434Z,9.56
2023-03-29T05:39:16.721Z,9.58
2023-03-29T05:41:43.014Z,9.60
2023-03-29T05:44:09.338Z,9.55
2023-03-29T05:46:35.637Z,9.49
2023-03-29T05:49:01.931Z,9.42
2023-03-29T05:51:28.257Z,9.50
2023-03-29T05:53:54.568Z,9.52
2023-03-29T05:56:20.879Z,9.72
2023-03-29T05:58:47.188Z,9.64
2023-03-29T06:01:13.499Z,9.63
2023-03-29T06:03:39.918Z,9.71
2023-03-29T06:06:06.306Z,9.79
2023-03-29T06:08:32.589Z,9.70
2023-03-29T06:10:58.998Z,9.71
2023-03-29T06:13:25.362Z,9.74
2023-03-29T06:15:51.733Z,9.72
2023-03-29T06:18:18.042Z,9.78
2023-03-29T06:20:44.361Z,9.86
2023-03-29T06:23:10.666Z,9.91
2023-03-29T06:25:36.957Z,9.94
2023-03-29T06:28:03.286Z,10.10
2023-03-29T06:30:29.599Z,10.07
2023-03-29T06:32:56.262Z,9.99
2023-03-29T06:35:22.645Z,10.13
2023-03-29T06:37:48.952Z,10.09
2023-03-29T06:40:15.247Z,10.08
2023-03-29T06:42:41.610Z,10.07
2023-03-29T06:45:07.902Z,9.94
2023-03-29T06:47:34.214Z,9.93
2023-03-29T06:50:00.566Z,9.90
2023-03-29T06:52:26.884Z,9.87
2023-03-29T06:54:53.197Z,9.91
2023-03-29T06:57:19.578Z,9.89
2023-03-29T06:59:45.929Z,9.95
2023-03-29T07:02:12.410Z,10.15
2023-03-29T07:04:38.981Z,10.13
2023-03-29T07:07:05.307Z,10.08
2023-03-29T07:09:31.606Z,10.13
2023-03-29T07:11:57.928Z,10.19
2023-03-29T07:14:24.224Z,10.34
2023-03-29T07:16:50.519Z,10.35
2023-03-29T07:19:16.834Z,10.34
2023-03-29T07:21:43.145Z,10.28
2023-03-29T07:24:09.441Z,10.31
2023-03-29T07:26:35.774Z,10.41
2023-03-29T07:29:02.073Z,10.36
2023-03-29T07:31:28.366Z,10.40
2023-03-29T07:33:54.712Z,10.57
2023-03-29T07:36:21.099Z,10.50
2023-03-29T07:38:47.411Z,10.50
2023-03-29T07:41:13.710Z,10.66
2023-03-29T07:43:40.001Z,10.78
2023-03-29T07:46:06.388Z,11.00
2023-03-29T07:48:32.802Z,10.99
2023-03-29T07:50:59.086Z,11.08
2023-03-29T07:53:25.398Z,11.07
2023-03-29T07:55:51.721Z,10.93
2023-03-29T07:58:18.059Z,10.96
2023-03-29T08:00:44.464Z,11.01
2023-03-29T08:03:10.909Z,11.15
2023-03-29T08:05:41.159Z,11.10
2023-03-29T08:08:08.185Z,11.13
2023-03-29T08:10:34.513Z,11.16
2023-03-29T08:13:00.818Z,11.30
2023-03-29T08:15:27.149Z,11.36
2023-03-29T08:17:53.658Z,11.40
2023-03-29T08:20:20.035Z,11.52
2023-03-29T08:22:46.360Z,11.58
2023-03-29T08:25:12.674Z,11.49
2023-03-29T08:27:38.996Z,11.60
2023-03-29T08:30:05.321Z,11.70
2023-03-29T08:32:31.663Z,11.85
2023-03-29T08:34:58.054Z,11.91
2023-03-29T08:37:24.391Z,11.92
2023-03-29T08:39:50.731Z,12.10
2023-03-29T08:42:17.025Z,12.14
2023-03-29T08:44:43.345Z,12.23
2023-03-29T08:47:09.677Z,12.23
2023-03-29T08:49:35.983Z,12.59
2023-03-29T08:52:02.288Z,12.59
2023-03-29T08:54:28.662Z,12.77
2023-03-29T08:56:55.006Z,12.91
2023-03-29T08:59:21.348Z,13.24
2023-03-29T09:01:48.726Z,12.87
2023-03-29T09:04:15.125Z,12.66
2023-03-29T09:06:41.429Z,12.57
2023-03-29T09:09:07.751Z,12.69
2023-03-29T09:11:34.043Z,12.71
2023-03-29T09:14:00.342Z,12.75
2023-03-29T09:16:26.707Z,13.05
2023-03-29T09:18:53.164Z,13.06
2023-03-29T09:21:19.455Z,13.25
2023-03-29T09:23:45.778Z,13.47
2023-03-29T09:26:12.081Z,13.66
2023-03-29T09:28:38.395Z,13.63
2023-03-29T09:31:05.038Z,13.75
2023-03-29T09:33:31.653Z,13.84
2023-03-29T09:35:58.040Z,13.90
2023-03-29T09:38:24.369Z,14.05
2023-03-29T09:40:50.676Z,13.94
2023-03-29T09:43:16.966Z,13.54
2023-03-29T09:45:43.306Z,13.51
2023-03-29T09:48:09.672Z,13.67
2023-03-29T09:50:36.012Z,14.02
2023-03-29T09:53:02.339Z,14.11
2023-03-29T09:55:28.652Z,14.21
2023-03-29T09:57:55.128Z,14.18
2023-03-29T10:00:21.501Z,14.11
2023-03-29T10:02:47.969Z,14.15
2023-03-29T10:05:14.320Z,14.55
2023-03-29T10:07:40.719Z,15.00
2023-03-29T10:10:07.006Z,15.12
2023-03-29T10:12:33.315Z,15.29
2023-03-29T10:14:59.647Z,15.55
2023-03-29T10:17:25.989Z,15.63
2023-03-29T10:19:52.358Z,15.70
2023-03-29T10:22:18.685Z,15.69
2023-03-29T10:24:44.994Z,15.96
2023-03-29T10:27:11.320Z,16.00
2023-03-29T10:29:37.638Z,16.36
2023-03-29T10:32:04.073Z,16.36
2023-03-29T10:34:30.432Z,16.55
2023-03-29T10:36:56.755Z,16.39
2023-03-29T10:39:23.058Z,16.91
2023-03-29T10:41:49.595Z,17.02
2023-03-29T10:44:15.969Z,16.88
2023-03-29T10:46:44.386Z,17.18
2023-03-29T10:49:10.735Z,16.83
2023-03-29T10:51:37.065Z,16.61
2023-03-29T10:54:03.364Z,16.52
2023-03-29T10:56:29.681Z,16.83
2023-03-29T10:58:55.998Z,16.98
2023-03-29T11:01:22.325Z,16.89
2023-03-29T11:03:48.691Z,16.83
2023-03-29T11:06:15.153Z,16.96
2023-03-29T11:08:41.456Z,17.39
2023-03-29T11:11:07.761Z,17.18
2023-03-29T11:13:34.121Z,16.72
2023-03-29T11:16:00.480Z,16.73
2023-03-29T11:18:26.792Z,16.94
2023-03-29T11:20:53.115Z,17.02
2023-03-29T11:23:19.420Z,17.34
2023-03-29T11:25:45.749Z,17.58
2023-03-29T11:28:12.095Z,17.96
2023-03-29T11:30:38.385Z,18.09
2023-03-29T11:33:04.717Z,17.81
2023-03-29T11:35:31.091Z,17.57
2023-03-29T11:37:57.408Z,17.40
2023-03-29T11:40:23.709Z,17.52
2023-03-29T11:42:50.026Z,17.70
2023-03-29T11:45:16.321Z,17.59
2023-03-29T11:47:42.756Z,17.89
2023-03-29T11:50:09.107Z,17.71
2023-03-29T11:52:35.421Z,17.90
2023-03-29T11:55:01.705Z,17.96
2023-03-29T11:57:28.048Z,17.81
2023-03-29T11:59:54.406Z,17.55
2023-03-29T12:02:20.758Z,17.15
2023-03-29T12:04:47.141Z,17.69
2023-03-29T12:07:13.494Z,17.73
2023-03-29T12:09:39.793Z,17.05
2023-03-29T12:12:06.243Z,16.94
2023-03-29T12:14:32.576Z,17.38
2023-03-29T12:16:58.900Z,17.33
2023-03-29T12:19:25.251Z,17.13
2023-03-29T12:21:51.550Z,16.80
2023-03-29T12:24:17.854Z,16.66
2023-03-29T12:26:44.157Z,16.68
2023-03-29T12:29:10.449Z,16.33
2023-03-29T12:31:36.792Z,16.71
2023-03-29T12:34:03.116Z,16.86
2023-03-29T12:36:29.405Z,16.91
2023-03-29T12:38:55.720Z,16.72
2023-03-29T12:41:22.058Z,16.87
2023-03-29T12:43:48.375Z,16.52
2023-03-29T12:46:14.776Z,16.81
2023-03-29T12:48:41.152Z,16.90
2023-03-29T12:51:07.457Z,16.63
2023-03-29T12:53:33.774Z,16.52
2023-03-29T12:56:00.237Z,16.36
2023-03-29T12:58:26.697Z,15.89
2023-03-29T13:00:53.055Z,16.14
2023-03-29T13:03:19.445Z,16.21
2023-03-29T13:05:45.864Z,16.22
2023-03-29T13:08:12.456Z,16.59
2023-03-29T13:10:38.777Z,16.62
2023-03-29T13:13:05.085Z,16.45
2023-03-29T13:15:31.433Z,16.22
2023-03-29T13:17:57.853Z,16.07
2023-03-29T13:20:24.151Z,16.33
2023-03-29T13:22:50.441Z,16.32
2023-03-29T13:25:16.782Z,16.43
2023-03-29T13:27:43.101Z,16.69
2023-03-29T13:30:09.414Z,16.49
2023-03-29T13:32:35.821Z,16.39
2023-03-29T13:35:02.132Z,16.39
2023-03-29T13:37:28.455Z,16.48
2023-03-29T13:39:55.020Z,16.53
2023-03-29T13:42:21.377Z,16.50
2023-03-29T13:44:47.684Z,16.34
2023-03-29T13:47:14.033Z,16.23
2023-03-29T13:49:40.329Z,16.39
2023-03-29T13:52:06.637Z,16.45
2023-03-29T13:54:32.983Z,16.46
2023-03-29T13:56:59.369Z,16.48
2023-03-29T13:59:25.682Z,16.57
2023-03-29T14:01:52.046Z,16.44
2023-03-29T14:04:18.393Z,16.53
2023-03-29T14:06:44.692Z,16.63
2023-03-29T14:09:11.003Z,16.87
2023-03-29T14:11:37.309Z,16.89
2023-03-29T14:14:03.621Z,16.97
2023-03-29T14:16:29.977Z,17.07
2023-03-29T14:18:56.285Z,17.03
2023-03-29T14:21:22.592Z,17.12
2023-03-29T14:23:48.964Z,17.34
2023-03-29T14:26:15.251Z,17.33
2023-03-29T14:28:41.547Z,17.33
2023-03-29T14:31:07.892Z,17.35
2023-03-29T14:33:34.190Z,17.41
2023-03-29T14:36:00.644Z,17.41
2023-03-29T14:38:27.135Z,17.47
2023-03-29T14:40:53.440Z,17.39
2023-03-29T14:43:19.862Z,17.42
2023-03-29T14:45:46.229Z,17.44
2023-03-29T14:48:12.580Z,17.54
2023-03-29T14:50:38.933Z,17.45
2023-03-29T14:53:05.270Z,17.58
2023-03-29T14:55:31.588Z,17.58
2023-03-29T14:57:57.890Z,17.50
2023-03-29T15:00:24.223Z,17.56
2023-03-29T15:02:50.590Z,17.44
2023-03-29T15:05:16.921Z,17.34
2023-03-29T15:07:43.254Z,17.36
2023-03-29T15:10:09.560Z,17.43
2023-03-29T15:12:35.910Z,17.29
2023-03-29T15:15:02.316Z,17.21
2023-03-29T15:17:36.346Z,17.28
2023-03-29T15:20:09.257Z,17.35
2023-03-29T15:22:35.570Z,17.45
2023-03-29T15:25:01.884Z,17.33
2023-03-29T15:27:28.239Z,17.43
2023-03-29T15:29:54.536Z,17.32
2023-03-29T15:32:20.849Z,17.22
2023-03-29T15:34:47.176Z,17.31
2023-03-29T15:37:13.504Z,17.40
2023-03-29T15:39:39.845Z,17.35
2023-03-29T15:42:06.173Z,17.40
2023-03-29T15:44:32.543Z,17.48
2023-03-29T15:46:58.880Z,17.71
2023-03-29T15:49:25.240Z,17.40
2023-03-29T15:51:51.531Z,17.34
2023-03-29T15:54:17.837Z,17.36
2023-03-29T15:56:44.206Z,17.27
2023-03-29T15:59:10.523Z,17.27
2023-03-29T16:01:36.817Z,17.28
2023-03-29T16:04:03.149Z,17.24
2023-03-29T16:06:29.454Z,17.27
2023-03-29T16:08:57.217Z,17.36
2023-03-29T16:11:23.788Z,17.32
2023-03-29T16:13:50.111Z,17.16
2023-03-29T16:16:16.436Z,17.02
2023-03-29T16:18:42.774Z,17.13
2023-03-29T16:21:11.080Z,17.06
2023-03-29T16:23:38.475Z,17.04
2023-03-29T16:26:04.951Z,17.00
2023-03-29T16:28:31.598Z,16.99
2023-03-29T16:30:57.894Z,17.01
2023-03-29T16:33:24.244Z,16.98
2023-03-29T16:35:50.598Z,16.97
2023-03-29T16:38:16.937Z,16.84
2023-03-29T16:40:43.274Z,16.86
2023-03-29T16:43:09.590Z,16.72
2023-03-29T16:45:35.899Z,16.75
2023-03-29T16:48:02.283Z,16.61
2023-03-29T16:50:32.545Z,16.81
2023-03-29T16:52:58.853Z,16.90
2023-03-29T16:55:25.181Z,16.88
2023-03-29T16:57:51.486Z,16.84
2023-03-29T17:00:17.781Z,16.83
2023-03-29T17:02:44.172Z,16.76
2023-03-29T17:05:10.539Z,16.83
2023-03-29T17:07:36.938Z,16.83
2023-03-29T17:10:03.288Z,16.59
2023-03-29T17:12:29.587Z,16.66
2023-03-29T17:14:55.891Z,16.80
2023-03-29T17:17:22.200Z,16.74
2023-03-29T17:19:48.494Z,16.76
2023-03-29T17:22:14.781Z,16.72
2023-03-29T17:24:41.092Z,16.68
2023-03-29T17:27:07.381Z,16.85
2023-03-29T17:29:33.692Z,16.81
2023-03-29T17:32:00.039Z,16.86
2023-03-29T17:34:26.352Z,16.80
2023-03-29T17:36:52.668Z,16.60
2023-03-29T17:39:19.018Z,16.77
2023-03-29T17:41:45.309Z,16.65
2023-03-29T17:44:11.599Z,16.76
2023-03-29T17:46:38.077Z,16.61
2023-03-29T17:49:04.414Z,16.62
2023-03-29T17:51:30.706Z,16.65
2023-03-29T17:53:57.064Z,16.51
2023-03-29T17:56:23.388Z,16.59
2023-03-29T17:58:49.684Z,16.55
2023-03-29T18:01:16.098Z,16.28
2023-03-29T18:03:42.426Z,16.40
2023-03-29T18:06:08.732Z,16.48
2023-03-29T18:08:35.331Z,16.53
2023-03-29T18:11:01.696Z,16.49
2023-03-29T18:13:28.000Z,16.67
2023-03-29T18:15:54.314Z,16.59
2023-03-29T18:18:20.623Z,16.50
2023-03-29T18:20:46.909Z,16.27
2023-03-29T18:23:13.231Z,16.06
2023-03-29T18:25:39.680Z,16.10
2023-03-29T18:28:06.046Z,16.07
2023-03-29T18:30:32.370Z,16.07
2023-03-29T18:32:58.726Z,16.04
2023-03-29T18:35:25.096Z,16.08
2023-03-29T18:37:51.419Z,16.16
2023-03-29T18:40:17.727Z,16.24
2023-03-29T18:42:44.031Z,16.34
2023-03-29T18:45:10.380Z,16.23
2023-03-29T18:47:36.684Z,16.28
2023-03-29T18:50:03.001Z,16.34
2023-03-29T18:52:29.324Z,16.36
2023-03-29T18:54:55.630Z,16.37
2023-03-29T18:57:21.965Z,16.18
2023-03-29T18:59:48.355Z,15.88
2023-03-29T19:02:14.688Z,15.77
2023-03-29T19:04:41.001Z,15.85
2023-03-29T19:07:07.309Z,15.92
2023-03-29T19:09:33.615Z,16.00
2023-03-29T19:11:59.935Z,15.85
2023-03-29T19:14:26.278Z,15.43
2023-03-29T19:16:52.662Z,15.17
2023-03-29T19:19:19.001Z,15.16
2023-03-29T19:21:45.317Z,15.19
2023-03-29T19:24:11.620Z,15.32
2023-03-29T19:26:37.911Z,14.83
2023-03-29T19:29:04.230Z,14.56
2023-03-29T19:31:30.574Z,14.58
2023-03-29T19:33:56.868Z,14.24
2023-03-29T19:36:23.189Z,14.00
2023-03-29T19:38:49.472Z,13.94
2023-03-29T19:41:15.789Z,14.21
2023-03-29T19:43:42.114Z,14.50
2023-03-29T19:46:08.560Z,14.59
2023-03-29T19:48:34.965Z,14.94
2023-03-29T19:51:01.337Z,14.36
2023-03-29T19:53:27.673Z,14.35
2023-03-29T19:55:53.967Z,14.53
2023-03-29T19:58:20.305Z,14.86
2023-03-29T20:00:46.620Z,15.01
2023-03-29T20:03:12.991Z,14.88
2023-03-29T20:05:39.396Z,14.83
2023-03-29T20:08:05.699Z,15.16
2023-03-29T20:10:32.026Z,14.84
2023-03-29T20:12:58.353Z,14.99
2023-03-29T20:15:24.654Z,14.77
2023-03-29T20:17:51.004Z,14.91
2023-03-29T20:20:17.358Z,14.73
2023-03-29T20:22:43.645Z,14.81
2023-03-29T20:25:09.995Z,14.74
2023-03-29T20:27:36.334Z,15.25
2023-03-29T20:30:02.657Z,14.89
2023-03-29T20:32:29.026Z,14.70
2023-03-29T20:34:55.367Z,15.00
2023-03-29T20:37:21.666Z,14.77
2023-03-29T20:39:47.973Z,14.71
2023-03-29T20:42:14.310Z,14.99
2023-03-29T20:44:40.622Z,14.98
2023-03-29T20:47:06.938Z,15.03
2023-03-29T20:49:33.250Z,14.75
2023-03-29T20:51:59.558Z,14.48
2023-03-29T20:54:25.870Z,14.18
2023-03-29T20:56:52.275Z,14.21
2023-03-29T20:59:18.604Z,14.53
2023-03-29T21:01:44.981Z,14.59
2023-03-29T21:04:11.384Z,14.86
2023-03-29T21:06:37.689Z,14.30
2023-03-29T21:09:04.001Z,14.76
2023-03-29T21:11:30.338Z,14.67
2023-03-29T21:13:56.640Z,14.78
2023-03-29T21:16:23.134Z,14.26
2023-03-29T21:18:49.545Z,14.35
2023-03-29T21:21:15.853Z,13.58
2023-03-29T21:23:43.363Z,13.76
2023-03-29T21:26:09.735Z,14.02
2023-03-29T21:28:36.040Z,14.31
2023-03-29T21:31:02.578Z,14.26
2023-03-29T21:33:29.084Z,14.24
2023-03-29T21:35:55.552Z,13.92
2023-03-29T21:38:21.917Z,14.26
2023-03-29T21:40:48.238Z,14.12
2023-03-29T21:43:14.546Z,14.00
2023-03-29T21:45:40.848Z,13.82
2023-03-29T21:48:07.206Z,13.68
2023-03-29T21:50:33.954Z,13.78
2023-03-29T21:53:00.409Z,14.13
2023-03-29T21:55:26.734Z,13.35
2023-03-29T21:57:53.033Z,13.83
2023-03-29T22:00:19.332Z,13.86
2023-03-29T22:02:45.856Z,14.15
2023-03-29T22:05:12.263Z,13.77
2023-03-29T22:07:38.625Z,13.72
2023-03-29T22:10:05.031Z,14.27
2023-03-29T22:12:31.506Z,14.10
2023-03-29T22:14:57.803Z,14.06
2023-03-29T22:17:24.127Z,14.08
2023-03-29T22:19:50.438Z,13.98
2023-03-29T22:22:16.742Z,13.86
2023-03-29T22:24:43.071Z,14.07
2023-03-29T22:27:09.364Z,14.40
2023-03-29T22:29:35.667Z,14.50
2023-03-29T22:32:02.073Z,13.95
2023-03-29T22:34:28.414Z,14.31
2023-03-29T22:36:54.716Z,14.01
2023-03-29T22:39:21.038Z,14.02
2023-03-29T22:41:47.354Z,14.30
2023-03-29T22:44:13.662Z,14.36
2023-03-29T22:46:39.969Z,14.18
2023-03-29T22:49:06.258Z,14.22
2023-03-29T22:51:32.559Z,14.17
2023-03-29T22:53:58.866Z,14.34
2023-03-29T22:56:25.280Z,14.05
2023-03-29T22:58:51.580Z,14.03
2023-03-29T23:01:17.912Z,13.93
2023-03-29T23:03:44.237Z,13.88
2023-03-29T23:06:10.525Z,14.21
2023-03-29T23:08:36.878Z,14.15
2023-03-29T23:11:03.365Z,13.88
2023-03-29T23:13:29.880Z,14.02
2023-03-29T23:15:56.222Z,13.98
2023-03-29T23:18:22.517Z,14.22
2023-03-29T23:20:48.829Z,13.93
2023-03-29T23:23:15.150Z,13.74
2023-03-29T23:25:41.462Z,13.82
2023-03-29T23:28:07.764Z,13.93
2023-03-29T23:30:34.086Z,13.99
2023-03-29T23:33:00.420Z,13.23
2023-03-29T23:35:26.770Z,13.19
2023-03-29T23:37:53.095Z,13.05
2023-03-29T23:40:19.396Z,13.00
2023-03-29T23:42:45.691Z,12.87
2023-03-29T23:45:12.024Z,13.32
2023-03-29T23:47:38.355Z,13.54
2023-03-29T23:50:04.674Z,13.52
2023-03-29T23:52:31.008Z,13.45
2023-03-29T23:54:57.302Z,13.29
2023-03-29T23:57:23.629Z,12.68
2023-03-29T23:59:49.970Z,12.34
